createdAt,value
2022-11-01T00:02:16.614Z,48.43
2022-11-01T00:04:46.078Z,43.30
2022-11-01T00:07:16.100Z,40.50
2022-11-01T00:09:44.946Z,46.17
2022-11-01T00:12:14.632Z,39.40
2022-11-01T00:14:42.793Z,42.23
2022-11-01T00:17:11.207Z,40.20
2022-11-01T00:19:39.417Z,44.63
2022-11-01T00:22:10.286Z,43.03
2022-11-01T00:24:38.420Z,43.93
2022-11-01T00:27:07.259Z,44.37
2022-11-01T00:29:37.259Z,46.63
2022-11-01T00:32:06.968Z,42.47
2022-11-01T00:34:37.577Z,42.07
2022-11-01T00:37:06.283Z,48.70
2022-11-01T00:39:34.450Z,45.50
2022-11-01T00:42:03.416Z,46.63
2022-11-01T00:44:31.683Z,50.87
2022-11-01T00:47:01.184Z,45.60
2022-11-01T00:49:54.057Z,46.03
2022-11-01T00:52:22.203Z,43.07
2022-11-01T00:54:51.055Z,39.87
2022-11-01T00:57:19.201Z,37.73
2022-11-01T00:59:49.599Z,37.40
2022-11-01T01:02:20.193Z,38.47
2022-11-01T01:04:49.208Z,34.80
2022-11-01T01:07:22.168Z,34.23
2022-11-01T01:09:50.447Z,34.37
2022-11-01T01:12:18.606Z,35.73
2022-11-01T01:14:46.936Z,32.47
2022-11-01T01:17:15.267Z,33.03
2022-11-01T01:19:45.047Z,31.43
2022-11-01T01:22:13.319Z,43.57
2022-11-01T01:24:45.602Z,51.70
2022-11-01T01:27:14.724Z,50.43
2022-11-01T01:29:44.423Z,64.60
2022-11-01T01:32:15.413Z,62.13
2022-11-01T01:34:48.853Z,62.60
2022-11-01T01:37:18.562Z,62.73
2022-11-01T01:39:46.722Z,58.47
2022-11-01T01:42:21.607Z,62.23
2022-11-01T01:45:34.532Z,57.23
2022-11-01T01:48:12.214Z,61.53
2022-11-01T01:50:49.678Z,56.67
2022-11-01T01:53:24.377Z,61.47
2022-11-01T01:55:57.739Z,59.90
2022-11-01T01:58:30.369Z,59.10
2022-11-01T02:00:59.152Z,59.73
2022-11-01T02:03:31.931Z,59.87
2022-11-01T02:06:11.560Z,58.70
2022-11-01T02:08:44.327Z,51.87
2022-11-01T02:11:13.078Z,49.37
2022-11-01T02:13:41.259Z,52.03
2022-11-01T02:16:39.153Z,50.80
2022-11-01T02:19:32.338Z,44.57
2022-11-01T02:22:07.088Z,46.67
2022-11-01T02:25:24.250Z,43.97
2022-11-01T02:28:34.590Z,39.30
2022-11-01T02:31:28.270Z,33.80
2022-11-01T02:34:01.333Z,36.70
2022-11-01T02:36:39.383Z,31.50
2022-11-01T02:39:16.556Z,27.53
2022-11-01T02:41:51.252Z,31.67
2022-11-01T02:44:25.356Z,25.93
2022-11-01T02:47:02.921Z,30.70
2022-11-01T02:49:36.571Z,33.03
2022-11-01T02:52:07.172Z,26.80
2022-11-01T02:54:40.999Z,28.63
2022-11-01T02:57:33.649Z,28.17
2022-11-01T03:00:17.919Z,24.47
2022-11-01T03:02:54.782Z,26.30
2022-11-01T03:05:32.023Z,22.90
2022-11-01T03:08:04.457Z,25.93
2022-11-01T03:10:44.389Z,24.37
2022-11-01T03:13:29.154Z,22.80
2022-11-01T03:16:07.173Z,24.03
2022-11-01T03:18:38.510Z,24.50
2022-11-01T03:21:20.323Z,23.27
2022-11-01T03:23:52.769Z,22.20
2022-11-01T03:26:28.543Z,24.63
2022-11-01T03:29:00.821Z,21.23
2022-11-01T03:31:32.635Z,21.53
2022-11-01T03:34:09.162Z,27.00
2022-11-01T03:36:44.466Z,28.23
2022-11-01T03:39:18.358Z,25.63
2022-11-01T03:41:52.482Z,21.37
2022-11-01T03:44:25.079Z,25.43
2022-11-01T03:46:53.467Z,22.90
2022-11-01T03:49:22.011Z,22.07
2022-11-01T03:51:51.560Z,20.37
2022-11-01T03:54:21.698Z,21.97
2022-11-01T03:56:52.181Z,25.13
2022-11-01T03:59:20.416Z,24.20
2022-11-01T04:01:49.297Z,23.57
2022-11-01T04:04:18.364Z,27.77
2022-11-01T04:06:49.639Z,26.13
2022-11-01T04:09:21.466Z,24.27
2022-11-01T04:11:50.239Z,30.73
2022-11-01T04:14:36.183Z,24.83
2022-11-01T04:17:37.229Z,24.97
2022-11-01T04:20:24.342Z,27.13
2022-11-01T04:22:56.604Z,26.43
2022-11-01T04:25:26.396Z,33.40
2022-11-01T04:27:57.000Z,31.43
2022-11-01T04:30:25.937Z,31.07
2022-11-01T04:32:54.216Z,45.97
2022-11-01T04:35:25.481Z,32.30
2022-11-01T04:37:58.319Z,47.67
2022-11-01T04:40:28.751Z,46.13
2022-11-01T04:42:56.884Z,26.57
2022-11-01T04:45:25.057Z,27.80
2022-11-01T04:48:03.123Z,23.93
2022-11-01T04:50:32.219Z,23.73
2022-11-01T04:53:01.925Z,27.97
2022-11-01T04:55:33.286Z,21.00
2022-11-01T04:58:02.411Z,21.63
2022-11-01T05:00:31.757Z,29.67
2022-11-01T05:03:04.718Z,31.37
2022-11-01T05:05:33.875Z,27.60
2022-11-01T05:08:03.617Z,28.80
2022-11-01T05:10:38.487Z,32.70
2022-11-01T05:13:06.795Z,31.30
2022-11-01T05:15:40.227Z,35.90
2022-11-01T05:18:12.385Z,28.10
2022-11-01T05:20:44.411Z,24.77
2022-11-01T05:23:13.447Z,25.63
2022-11-01T05:25:42.937Z,29.80
2022-11-01T05:28:14.599Z,22.07
2022-11-01T05:30:43.378Z,30.80
2022-11-01T05:33:12.792Z,31.93
2022-11-01T05:35:42.086Z,39.17
2022-11-01T05:38:11.463Z,25.67
2022-11-01T05:40:41.564Z,33.53
2022-11-01T05:43:11.095Z,24.57
2022-11-01T05:45:39.760Z,26.73
2022-11-01T05:48:08.020Z,26.97
2022-11-01T05:50:36.396Z,22.77
2022-11-01T05:53:08.148Z,22.73
2022-11-01T05:55:36.697Z,31.37
2022-11-01T05:58:08.161Z,20.67
2022-11-01T06:00:37.811Z,29.10
2022-11-01T06:03:07.249Z,35.27
2022-11-01T06:05:39.620Z,31.57
2022-11-01T06:08:10.403Z,25.43
2022-11-01T06:10:38.711Z,36.73
2022-11-01T06:13:07.010Z,37.83
2022-11-01T06:15:39.630Z,44.53
2022-11-01T06:18:10.287Z,39.60
2022-11-01T06:20:39.245Z,25.70
2022-11-01T06:23:13.327Z,49.73
2022-11-01T06:25:41.529Z,42.77
2022-11-01T06:28:09.717Z,36.00
2022-11-01T06:30:39.118Z,25.53
2022-11-01T06:33:09.611Z,26.40
2022-11-01T06:35:41.697Z,25.73
2022-11-01T06:38:14.115Z,26.90
2022-11-01T06:40:43.280Z,28.57
2022-11-01T06:43:11.711Z,25.03
2022-11-01T06:45:40.533Z,22.93
2022-11-01T06:48:10.370Z,36.37
2022-11-01T06:50:39.937Z,29.53
2022-11-01T06:53:08.525Z,26.07
2022-11-01T06:55:37.432Z,30.30
2022-11-01T06:58:06.691Z,28.23
2022-11-01T07:00:37.763Z,26.17
2022-11-01T07:03:11.510Z,25.60
2022-11-01T07:05:45.562Z,30.77
2022-11-01T07:08:18.232Z,28.47
2022-11-01T07:10:46.450Z,44.07
2022-11-01T07:13:15.329Z,29.53
2022-11-01T07:15:43.501Z,26.90
2022-11-01T07:18:13.462Z,28.13
2022-11-01T07:20:43.127Z,32.63
2022-11-01T07:23:15.680Z,31.40
2022-11-01T07:25:44.395Z,35.03
2022-11-01T07:28:12.846Z,24.50
2022-11-01T07:30:42.294Z,44.70
2022-11-01T07:33:14.150Z,33.10
2022-11-01T07:35:43.710Z,30.10
2022-11-01T07:38:13.418Z,38.53
2022-11-01T07:40:42.330Z,30.80
2022-11-01T07:43:10.477Z,27.20
2022-11-01T07:45:42.296Z,25.63
2022-11-01T07:48:13.629Z,27.37
2022-11-01T07:50:49.886Z,24.07
2022-11-01T07:53:20.013Z,28.33
2022-11-01T07:55:51.982Z,25.67
2022-11-01T07:58:20.258Z,28.00
2022-11-01T08:00:48.392Z,26.97
2022-11-01T08:03:22.540Z,24.83
2022-11-01T08:05:52.214Z,26.87
2022-11-01T08:08:22.881Z,25.10
2022-11-01T08:10:51.051Z,29.83
2022-11-01T08:13:21.491Z,28.20
2022-11-01T08:15:50.955Z,24.87
2022-11-01T08:18:23.735Z,27.67
2022-11-01T08:20:56.512Z,23.03
2022-11-01T08:23:25.521Z,26.90
2022-11-01T08:25:53.677Z,24.63
2022-11-01T08:28:22.745Z,25.07
2022-11-01T08:30:53.421Z,27.10
2022-11-01T08:33:24.341Z,28.73
2022-11-01T08:35:53.847Z,29.17
2022-11-01T08:38:22.020Z,26.03
2022-11-01T08:40:50.150Z,24.80
2022-11-01T08:43:18.721Z,38.60
2022-11-01T08:45:50.782Z,34.13
2022-11-01T08:48:19.011Z,31.27
2022-11-01T08:50:47.211Z,33.17
2022-11-01T08:53:17.073Z,33.00
2022-11-01T08:55:45.411Z,35.33
2022-11-01T08:58:13.652Z,33.33
2022-11-01T09:00:41.821Z,33.37
2022-11-01T09:03:13.285Z,32.87
2022-11-01T09:12:24.414Z,31.43
2022-11-01T09:14:56.599Z,32.00
2022-11-01T09:17:25.683Z,33.87
2022-11-01T09:20:21.307Z,34.47
2022-11-01T09:22:52.444Z,33.23
2022-11-01T09:25:22.097Z,32.13
2022-11-01T09:27:50.314Z,34.17
2022-11-01T09:30:22.357Z,33.50
2022-11-01T09:32:50.623Z,36.43
2022-11-01T09:35:19.331Z,34.77
2022-11-01T09:37:47.460Z,33.67
2022-11-01T09:40:16.929Z,37.53
2022-11-01T09:42:47.341Z,43.37
2022-11-01T09:45:21.112Z,37.73
2022-11-01T09:47:53.635Z,37.00
2022-11-01T09:50:26.648Z,39.40
2022-11-01T09:52:56.481Z,38.40
2022-11-01T09:55:35.327Z,35.43
2022-11-01T09:58:17.126Z,38.43
2022-11-01T10:00:53.444Z,37.90
2022-11-01T10:03:40.434Z,36.83
2022-11-01T10:06:20.272Z,31.03
2022-11-01T10:08:59.617Z,31.57
2022-11-01T10:11:42.474Z,29.63
2022-11-01T10:14:25.363Z,27.30
2022-11-01T10:16:59.751Z,29.87
2022-11-01T10:19:36.024Z,33.43
2022-11-01T10:22:08.749Z,36.17
2022-11-01T10:24:41.194Z,37.37
2022-11-01T10:27:16.257Z,38.00
2022-11-01T10:29:50.622Z,36.47
2022-11-01T10:32:28.194Z,36.13
2022-11-01T10:35:02.615Z,34.80
2022-11-01T10:37:36.466Z,37.73
2022-11-01T10:40:14.760Z,33.23
2022-11-01T10:42:44.614Z,37.37
2022-11-01T10:45:20.706Z,36.40
2022-11-01T10:47:58.667Z,39.23
2022-11-01T10:50:29.007Z,37.17
2022-11-01T10:53:03.218Z,36.40
2022-11-01T10:55:36.679Z,40.60
2022-11-01T10:58:07.709Z,36.67
2022-11-01T11:00:41.127Z,38.63
2022-11-01T11:03:22.736Z,39.13
2022-11-01T11:05:53.233Z,39.07
2022-11-01T11:08:26.580Z,37.57
2022-11-01T11:10:59.641Z,37.87
2022-11-01T11:13:28.696Z,37.50
2022-11-01T11:16:01.735Z,39.27
2022-11-01T11:18:33.679Z,39.87
2022-11-01T11:21:04.925Z,39.80
2022-11-01T11:23:42.658Z,38.50
2022-11-01T11:26:17.123Z,38.63
2022-11-01T11:28:47.685Z,41.83
2022-11-01T11:31:26.268Z,38.20
2022-11-01T11:33:58.332Z,40.87
2022-11-01T11:36:33.166Z,40.20
2022-11-01T11:39:02.772Z,41.07
2022-11-01T11:41:33.052Z,38.60
2022-11-01T11:44:02.543Z,40.37
2022-11-01T11:46:34.705Z,39.80
2022-11-01T11:49:07.187Z,44.83
2022-11-01T11:51:37.781Z,40.87
2022-11-01T11:54:22.918Z,38.97
2022-11-01T11:56:53.724Z,42.63
2022-11-01T11:59:30.578Z,43.20
2022-11-01T12:02:03.444Z,43.77
2022-11-01T12:04:38.557Z,39.80
2022-11-01T12:07:08.253Z,38.33
2022-11-01T12:09:46.681Z,41.70
2022-11-01T12:12:20.640Z,38.70
2022-11-01T12:14:49.633Z,39.10
2022-11-01T12:17:34.282Z,45.03
2022-11-01T12:20:16.631Z,40.23
2022-11-01T12:22:49.830Z,41.83
2022-11-01T12:25:22.697Z,39.53
2022-11-01T12:27:58.479Z,38.60
2022-11-01T12:30:28.704Z,39.10
2022-11-01T12:33:02.551Z,63.40
2022-11-01T12:35:33.702Z,45.40
2022-11-01T12:38:39.704Z,43.03
2022-11-01T12:41:25.496Z,42.97
2022-11-01T12:44:03.726Z,43.73
2022-11-01T12:46:39.451Z,40.47
2022-11-01T12:49:17.205Z,39.00
2022-11-01T12:51:53.965Z,48.50
2022-11-01T12:54:27.248Z,38.60
2022-11-01T12:56:57.048Z,36.77
2022-11-01T12:59:29.864Z,38.37
2022-11-01T13:02:06.605Z,39.83
2022-11-01T13:04:38.681Z,38.37
2022-11-01T13:07:24.179Z,40.13
2022-11-01T13:10:05.380Z,42.37
2022-11-01T13:12:41.209Z,41.87
2022-11-01T13:15:18.015Z,40.27
2022-11-01T13:17:59.061Z,43.60
2022-11-01T13:20:44.086Z,48.20
2022-11-01T13:23:19.726Z,44.83
2022-11-01T13:25:54.669Z,45.90
2022-11-01T13:28:59.118Z,47.87
2022-11-01T13:31:37.695Z,48.80
2022-11-01T13:34:41.754Z,49.57
2022-11-01T13:37:22.509Z,52.57
2022-11-01T13:40:15.667Z,50.90
2022-11-01T13:42:49.780Z,51.90
2022-11-01T13:45:51.406Z,52.70
2022-11-01T13:48:29.176Z,50.80
2022-11-01T13:51:22.518Z,47.53
2022-11-01T13:53:58.996Z,50.97
2022-11-01T13:56:32.150Z,51.00
2022-11-01T13:59:03.393Z,53.00
2022-11-01T14:01:35.634Z,55.40
2022-11-01T14:04:49.710Z,53.93
2022-11-01T14:07:20.364Z,55.20
2022-11-01T14:09:55.169Z,54.67
2022-11-01T14:12:39.067Z,52.00
2022-11-01T14:15:22.703Z,49.20
2022-11-01T14:18:08.525Z,52.37
2022-11-01T14:20:56.790Z,51.50
2022-11-01T14:23:59.716Z,53.57
2022-11-01T14:26:45.433Z,53.73
2022-11-01T14:29:14.507Z,51.37
2022-11-01T14:31:46.968Z,56.50
2022-11-01T14:34:27.611Z,50.47
2022-11-01T14:36:59.232Z,52.30
2022-11-01T14:39:35.723Z,54.57
2022-11-01T14:42:11.525Z,48.40
2022-11-01T14:44:45.586Z,54.47
2022-11-01T14:47:33.558Z,53.80
2022-11-01T14:50:11.463Z,55.97
2022-11-01T14:52:45.734Z,54.73
2022-11-01T14:55:19.598Z,43.70
2022-11-01T14:57:50.758Z,50.07
2022-11-01T15:00:26.171Z,42.23
2022-11-01T15:02:54.887Z,41.57
2022-11-01T15:05:23.314Z,39.00
2022-11-01T15:07:53.777Z,38.63
2022-11-01T15:10:24.721Z,42.33
2022-11-01T15:12:59.133Z,37.33
2022-11-01T15:15:30.667Z,43.23
2022-11-01T15:18:02.100Z,42.17
2022-11-01T15:20:36.376Z,40.43
2022-11-01T15:23:11.572Z,36.60
2022-11-01T15:25:43.333Z,39.43
2022-11-01T15:28:22.543Z,35.00
2022-11-01T15:30:56.204Z,33.93
2022-11-01T15:33:27.948Z,34.97
2022-11-01T15:35:58.537Z,34.40
2022-11-01T15:38:27.775Z,35.53
2022-11-01T15:40:55.941Z,29.10
2022-11-01T15:43:27.960Z,27.50
2022-11-01T15:45:58.963Z,28.43
2022-11-01T15:48:31.581Z,31.87
2022-11-01T15:51:03.050Z,33.93
2022-11-01T15:53:33.539Z,33.17
2022-11-01T15:56:04.879Z,38.73
2022-11-01T15:58:38.578Z,37.90
2022-11-01T16:01:14.016Z,49.47
2022-11-01T16:03:50.670Z,45.33
2022-11-01T16:06:23.318Z,61.10
2022-11-01T16:08:57.318Z,46.13
2022-11-01T16:11:29.386Z,40.63
2022-11-01T16:14:04.949Z,39.07
2022-11-01T16:16:58.001Z,41.57
2022-11-01T16:19:39.824Z,42.60
2022-11-01T16:22:34.336Z,37.33
2022-11-01T16:25:15.470Z,37.83
2022-11-01T16:27:55.865Z,40.20
2022-11-01T16:30:39.414Z,36.70
2022-11-01T16:33:18.077Z,37.33
2022-11-01T16:35:48.111Z,51.07
2022-11-01T16:38:44.681Z,86.77
2022-11-01T16:41:21.024Z,42.60
2022-11-01T16:43:53.190Z,39.07
2022-11-01T16:46:25.218Z,34.90
2022-11-01T16:48:59.889Z,42.60
2022-11-01T16:51:30.463Z,42.63
2022-11-01T16:54:00.299Z,41.37
2022-11-01T16:56:37.041Z,40.70
2022-11-01T16:59:08.591Z,40.50
2022-11-01T17:01:39.652Z,38.30
2022-11-01T17:04:08.989Z,38.67
2022-11-01T17:06:39.078Z,42.47
2022-11-01T17:09:12.865Z,40.77
2022-11-01T17:11:50.708Z,43.47
2022-11-01T17:14:22.754Z,43.33
2022-11-01T17:16:56.339Z,50.03
2022-11-01T17:19:29.677Z,57.87
2022-11-01T17:21:59.525Z,45.80
2022-11-01T17:24:28.457Z,54.37
2022-11-01T17:27:00.684Z,47.13
2022-11-01T17:29:29.434Z,57.17
2022-11-01T17:31:59.797Z,52.27
2022-11-01T17:34:29.068Z,44.00
2022-11-01T17:36:58.352Z,51.03
2022-11-01T17:39:29.188Z,49.50
2022-11-01T17:41:57.535Z,48.07
2022-11-01T17:44:26.996Z,51.03
2022-11-01T17:46:55.606Z,60.77
2022-11-01T17:49:25.686Z,52.37
2022-11-01T17:51:55.212Z,53.03
2022-11-01T17:54:23.861Z,48.03
2022-11-01T17:56:52.113Z,50.97
2022-11-01T17:59:20.466Z,49.00
2022-11-01T18:01:49.082Z,61.03
2022-11-01T18:04:17.553Z,57.33
2022-11-01T18:06:47.062Z,58.00
2022-11-01T18:09:21.214Z,60.57
2022-11-01T18:11:54.618Z,62.20
2022-11-01T18:14:34.447Z,56.67
2022-11-01T18:17:10.356Z,54.27
2022-11-01T18:19:49.091Z,51.43
2022-11-01T18:22:29.100Z,55.30
2022-11-01T18:25:03.710Z,53.03
2022-11-01T18:27:35.615Z,62.63
2022-11-01T18:30:12.613Z,62.40
2022-11-01T18:32:46.390Z,70.43
2022-11-01T18:35:30.894Z,70.00
2022-11-01T18:38:17.842Z,69.27
2022-11-01T18:40:56.822Z,68.83
2022-11-01T18:43:26.866Z,76.67
2022-11-01T18:46:23.376Z,66.90
2022-11-01T18:48:45.643Z,72.70
2022-11-01T18:51:17.524Z,66.70
2022-11-01T18:53:47.222Z,66.50
2022-11-01T18:56:21.470Z,75.77
2022-11-01T18:58:52.383Z,65.00
2022-11-01T19:01:22.368Z,68.43
2022-11-01T19:04:01.166Z,68.83
2022-11-01T19:06:31.811Z,69.10
2022-11-01T19:09:14.038Z,67.70
2022-11-01T19:11:45.119Z,69.83
2022-11-01T19:14:22.691Z,73.33
2022-11-01T19:16:54.848Z,63.40
2022-11-01T19:19:23.093Z,68.30
2022-11-01T19:21:51.347Z,68.00
2022-11-01T19:24:33.486Z,61.17
2022-11-01T19:27:03.304Z,68.00
2022-11-01T19:29:35.298Z,67.60
2022-11-01T19:32:05.311Z,75.60
2022-11-01T19:34:38.168Z,72.87
2022-11-01T19:37:23.362Z,70.27
2022-11-01T19:39:53.796Z,69.10
2022-11-01T19:42:28.653Z,64.13
2022-11-01T19:44:59.683Z,58.00
2022-11-01T19:47:38.121Z,58.77
2022-11-01T19:50:25.086Z,50.57
2022-11-01T19:52:54.741Z,55.93
2022-11-01T19:55:48.135Z,55.37
2022-11-01T19:58:39.368Z,46.67
2022-11-01T20:01:46.218Z,46.83
2022-11-01T20:04:27.746Z,53.23
2022-11-01T20:07:01.272Z,50.30
2022-11-01T20:09:31.439Z,57.07
2022-11-01T20:12:01.047Z,56.67
2022-11-01T20:14:29.595Z,58.03
2022-11-01T20:16:57.928Z,57.10
2022-11-01T20:19:27.153Z,57.57
2022-11-01T20:21:55.355Z,64.37
2022-11-01T20:24:23.557Z,61.40
2022-11-01T20:26:51.901Z,57.73
2022-11-01T20:29:21.614Z,57.10
2022-11-01T20:31:49.896Z,66.33
2022-11-01T20:34:25.065Z,61.90
2022-11-01T20:37:14.833Z,60.43
2022-11-01T20:39:41.944Z,56.03
2022-11-01T20:42:10.119Z,53.23
2022-11-01T20:44:44.396Z,53.17
2022-11-01T20:47:13.709Z,57.13
2022-11-01T20:49:45.893Z,57.77
2022-11-01T20:52:37.887Z,60.53
2022-11-01T20:55:03.006Z,56.10
2022-11-01T20:57:31.590Z,56.50
2022-11-01T21:00:07.643Z,61.53
2022-11-01T21:02:36.771Z,81.80
2022-11-01T21:05:16.951Z,69.03
2022-11-01T21:07:47.968Z,63.27
2022-11-01T21:10:30.908Z,58.67
2022-11-01T21:13:01.971Z,58.77
2022-11-01T21:15:35.087Z,62.10
2022-11-01T21:18:31.734Z,63.17
2022-11-01T21:21:08.869Z,62.13
2022-11-01T21:23:39.292Z,61.70
2022-11-01T21:26:17.457Z,65.00
2022-11-01T21:28:48.711Z,66.07
2022-11-01T21:31:27.952Z,69.00
2022-11-01T21:33:58.917Z,70.20
2022-11-01T21:36:35.006Z,72.30
2022-11-01T21:39:04.954Z,66.47
2022-11-01T21:41:35.760Z,73.97
2022-11-01T21:44:31.656Z,71.53
2022-11-01T21:47:16.417Z,68.50
2022-11-01T21:49:44.915Z,72.03
2022-11-01T21:52:13.140Z,70.13
2022-11-01T21:54:46.367Z,67.53
2022-11-01T21:57:15.856Z,67.83
2022-11-01T21:59:45.120Z,75.90
2022-11-01T22:02:16.921Z,78.13
2022-11-01T22:04:46.946Z,72.50
2022-11-01T22:07:15.718Z,76.03
2022-11-01T22:09:48.006Z,73.63
2022-11-01T22:12:16.945Z,72.53
2022-11-01T22:14:45.133Z,74.57
2022-11-01T22:17:14.911Z,67.50
2022-11-01T22:19:43.457Z,72.53
2022-11-01T22:22:16.331Z,70.57
2022-11-01T22:24:44.907Z,69.43
2022-11-01T22:27:13.771Z,65.43
2022-11-01T22:29:42.934Z,72.67
2022-11-01T22:32:11.500Z,77.33
2022-11-01T22:34:42.960Z,80.77
2022-11-01T22:37:13.669Z,82.43
2022-11-01T22:39:47.045Z,91.47
2022-11-01T22:42:18.935Z,80.97
2022-11-01T22:44:49.591Z,87.90
2022-11-01T22:47:23.508Z,82.77
2022-11-01T22:49:56.068Z,83.27
2022-11-01T22:52:32.766Z,86.87
2022-11-01T22:55:05.439Z,83.27
2022-11-01T22:57:35.937Z,81.10
2022-11-01T23:00:27.237Z,71.30
2022-11-01T23:03:02.076Z,65.47
2022-11-01T23:05:32.160Z,64.67
2022-11-01T23:08:09.343Z,59.40
2022-11-01T23:10:39.239Z,60.20
2022-11-01T23:13:34.779Z,56.97
2022-11-01T23:16:06.147Z,55.93
2022-11-01T23:18:43.803Z,55.63
2022-11-01T23:21:18.377Z,56.77
2022-11-01T23:23:49.977Z,52.27
2022-11-01T23:26:20.002Z,50.07
2022-11-01T23:28:51.823Z,47.33
2022-11-01T23:31:21.034Z,48.00
2022-11-01T23:33:51.149Z,49.00
2022-11-01T23:36:24.982Z,47.57
2022-11-01T23:38:56.532Z,47.13
2022-11-01T23:41:28.015Z,48.90
2022-11-01T23:44:03.654Z,49.87
2022-11-01T23:46:34.100Z,50.00
2022-11-01T23:49:11.955Z,50.03
2022-11-01T23:51:43.532Z,48.73
2022-11-01T23:54:19.761Z,48.73
2022-11-01T23:56:47.970Z,52.97
2022-11-01T23:59:17.973Z,52.23
